Time;durP1;ratioP1;P1;durP2;ratioP2;P2;SDS_P1;SDS_P2;PMS_P1;PMS_P2;Temp;Humidity;BMP_temperature;BMP_pressure;BME280_temperature;BME280_humidity;BME280_pressure;Samples;Min_cycle;Max_cycle;Signal;HPM_P1;HPM_P2
2022/06/26 00:01:49;;;;;;;0.70;0.70;;;;;;;;;;5053018;28;20502;-79
2022/06/26 00:04:17;;;;;;;0.70;0.60;;;;;;;;;;5060213;28;20479;-78
2022/06/26 00:06:44;;;;;;;0.70;0.60;;;;;;;;;;5045261;28;21067;-79
2022/06/26 00:09:11;;;;;;;0.70;0.70;;;;;;;;;;5073522;28;20867;-80
2022/06/26 00:11:38;;;;;;;0.70;0.60;;;;;;;;;;5071299;28;20487;-79
2022/06/26 00:14:07;;;;;;;1.23;0.83;;;;;;;;;;5060223;28;20465;-79
2022/06/26 00:16:34;;;;;;;0.87;0.87;;;;;;;;;;5074123;28;20416;-79
2022/06/26 00:19:01;;;;;;;0.70;0.60;;;;;;;;;;5070957;28;20528;-79
2022/06/26 00:21:29;;;;;;;0.70;0.60;;;;;;;;;;5055236;28;20481;-79
2022/06/26 00:23:57;;;;;;;0.70;0.60;;;;;;;;;;5056998;28;20511;-79
2022/06/26 00:26:23;;;;;;;0.70;0.70;;;;;;;;;;5061043;28;20434;-78
2022/06/26 00:28:52;;;;;;;0.80;0.80;;;;;;;;;;5054608;28;20470;-79
2022/06/26 00:31:19;;;;;;;0.70;0.60;;;;;;;;;;5060907;28;21010;-79
2022/06/26 00:33:46;;;;;;;0.97;0.97;;;;;;;;;;5053394;28;20437;-79
2022/06/26 00:36:13;;;;;;;0.80;0.80;;;;;;;;;;5058529;28;20533;-79
2022/06/26 00:38:41;;;;;;;0.90;0.73;;;;;;;;;;5073168;28;20438;-79
2022/06/26 00:41:08;;;;;;;1.07;0.97;;;;;;;;;;5072015;28;20515;-79
2022/06/26 00:43:34;;;;;;;0.93;0.93;;;;;;;;;;5057368;28;20442;-79
2022/06/26 00:46:03;;;;;;;0.70;0.60;;;;;;;;;;5055481;28;20446;-79
2022/06/26 00:48:30;;;;;;;0.70;0.60;;;;;;;;;;5052578;28;20474;-79
2022/06/26 00:50:57;;;;;;;1.20;1.10;;;;;;;;;;5036786;28;20460;-80
2022/06/26 00:53:24;;;;;;;1.73;1.63;;;;;;;;;;5052622;28;20429;-79
2022/06/26 00:55:53;;;;;;;0.73;0.70;;;;;;;;;;5052229;28;20519;-79
2022/06/26 00:58:20;;;;;;;0.70;0.60;;;;;;;;;;5036738;28;20870;-79
2022/06/26 01:00:48;;;;;;;0.93;0.93;;;;;;;;;;5051729;28;20441;-79
2022/06/26 01:03:16;;;;;;;0.70;0.67;;;;;;;;;;5053279;28;20460;-79
2022/06/26 01:05:43;;;;;;;1.37;0.90;;;;;;;;;;5052802;28;20480;-79
2022/06/26 01:08:10;;;;;;;0.70;0.70;;;;;;;;;;5055331;28;20451;-79
2022/06/26 01:10:38;;;;;;;0.70;0.70;;;;;;;;;;5071352;28;20426;-79
2022/06/26 01:13:07;;;;;;;0.70;0.60;;;;;;;;;;5072290;28;20484;-79
2022/06/26 01:15:35;;;;;;;0.70;0.60;;;;;;;;;;5071774;28;20523;-79
2022/06/26 01:18:04;;;;;;;0.73;0.73;;;;;;;;;;5035417;28;20473;-79
2022/06/26 01:20:30;;;;;;;0.70;0.70;;;;;;;;;;5052551;28;20949;-79
2022/06/26 01:23:01;;;;;;;0.70;0.60;;;;;;;;;;5054976;28;20967;-79
2022/06/26 01:25:40;;;;;;;1.23;1.13;;;;;;;;;;5033376;28;20470;-79
2022/06/26 01:28:08;;;;;;;0.70;0.70;;;;;;;;;;5052414;28;20440;-78
2022/06/26 01:30:37;;;;;;;0.70;0.70;;;;;;;;;;5068639;28;20661;-79
2022/06/26 01:33:05;;;;;;;1.03;0.93;;;;;;;;;;5071757;28;20542;-79
2022/06/26 01:35:33;;;;;;;0.70;0.60;;;;;;;;;;5054789;28;20435;-80
2022/06/26 01:38:13;;;;;;;0.93;0.83;;;;;;;;;;5055970;28;20499;-79
2022/06/26 01:40:40;;;;;;;0.70;0.67;;;;;;;;;;5068368;28;20432;-80
2022/06/26 01:43:10;;;;;;;0.70;0.60;;;;;;;;;;5052088;28;20804;-78
2022/06/26 01:45:40;;;;;;;0.90;0.90;;;;;;;;;;5068087;28;20990;-78
2022/06/26 01:48:08;;;;;;;0.70;0.70;;;;;;;;;;5053065;28;21004;-79
2022/06/26 01:50:36;;;;;;;0.70;0.70;;;;;;;;;;5035001;28;20455;-79
2022/06/26 01:53:05;;;;;;;0.83;0.83;;;;;;;;;;5051796;28;20453;-79
2022/06/26 01:55:33;;;;;;;1.43;1.33;;;;;;;;;;5035508;28;20460;-79
2022/06/26 01:58:03;;;;;;;0.70;0.60;;;;;;;;;;5068366;28;20460;-78
2022/06/26 02:00:31;;;;;;;0.70;0.70;;;;;;;;;;5059367;28;20492;-79
2022/06/26 02:03:01;;;;;;;0.93;0.90;;;;;;;;;;5060331;28;20488;-79
2022/06/26 02:05:28;;;;;;;0.70;0.70;;;;;;;;;;5072620;28;20881;-79
2022/06/26 02:07:58;;;;;;;0.70;0.60;;;;;;;;;;5073880;28;20452;-79
2022/06/26 02:13:41;;;;;;;1.10;1.10;;;;;;;;;;5075498;28;20470;-79
2022/06/26 02:16:12;;;;;;;0.70;0.70;;;;;;;;;;5057782;28;20444;-79
2022/06/26 02:18:43;;;;;;;1.30;1.10;;;;;;;;;;5071566;28;20460;-79
2022/06/26 02:21:13;;;;;;;0.87;0.87;;;;;;;;;;5059068;28;20484;-79
2022/06/26 02:23:44;;;;;;;0.97;0.90;;;;;;;;;;5064019;28;20535;-79
2022/06/26 02:26:13;;;;;;;0.70;0.70;;;;;;;;;;5056567;28;20520;-79
2022/06/26 02:28:43;;;;;;;0.80;0.80;;;;;;;;;;5071518;28;20436;-79
2022/06/26 02:31:12;;;;;;;0.80;0.80;;;;;;;;;;5056133;28;21003;-79
2022/06/26 02:33:40;;;;;;;0.93;0.90;;;;;;;;;;5055752;28;20447;-79
2022/06/26 02:36:09;;;;;;;0.70;0.63;;;;;;;;;;5057340;28;20485;-79
2022/06/26 02:38:40;;;;;;;0.73;0.73;;;;;;;;;;5055492;28;20484;-79
2022/06/26 02:41:08;;;;;;;0.60;0.60;;;;;;;;;;5038483;28;20453;-79
2022/06/26 02:43:37;;;;;;;0.60;0.60;;;;;;;;;;5066246;28;20502;-79
2022/06/26 02:46:10;;;;;;;0.93;0.93;;;;;;;;;;5055523;28;20469;-79
2022/06/26 02:48:38;;;;;;;0.70;0.63;;;;;;;;;;5054689;28;20465;-79
2022/06/26 02:51:06;;;;;;;0.70;0.63;;;;;;;;;;5038930;28;20478;-79
2022/06/26 02:53:35;;;;;;;0.70;0.67;;;;;;;;;;5051674;28;20450;-79
2022/06/26 02:56:04;;;;;;;0.80;0.77;;;;;;;;;;5054491;28;20450;-79
2022/06/26 02:58:34;;;;;;;0.70;0.70;;;;;;;;;;5037777;28;20473;-80
2022/06/26 03:01:02;;;;;;;0.70;0.70;;;;;;;;;;5055307;28;20454;-79
2022/06/26 03:03:31;;;;;;;0.70;0.60;;;;;;;;;;5038771;28;20441;-79
2022/06/26 03:06:01;;;;;;;0.80;0.80;;;;;;;;;;5056834;28;20824;-80
2022/06/26 03:08:30;;;;;;;0.70;0.70;;;;;;;;;;5058215;28;20457;-79
2022/06/26 03:10:57;;;;;;;0.70;0.60;;;;;;;;;;5074398;28;20437;-79
2022/06/26 03:13:24;;;;;;;0.70;0.60;;;;;;;;;;5073197;28;20539;-79
2022/06/26 03:15:51;;;;;;;0.80;0.80;;;;;;;;;;5058163;28;20436;-79
2022/06/26 03:18:19;;;;;;;1.00;1.00;;;;;;;;;;5074191;28;20475;-79
2022/06/26 03:20:47;;;;;;;2.37;2.17;;;;;;;;;;5074780;28;20469;-77
2022/06/26 03:23:14;;;;;;;0.70;0.70;;;;;;;;;;5069380;28;20444;-79
2022/06/26 03:25:41;;;;;;;0.63;0.60;;;;;;;;;;5070972;28;20506;-79
2022/06/26 03:28:08;;;;;;;0.70;0.70;;;;;;;;;;5056224;28;20432;-79
2022/06/26 03:30:39;;;;;;;1.13;1.03;;;;;;;;;;5047651;28;20458;-79
2022/06/26 03:33:11;;;;;;;0.60;0.60;;;;;;;;;;5038180;28;20512;-78
2022/06/26 03:35:38;;;;;;;4.50;1.77;;;;;;;;;;5036567;28;20431;-79
2022/06/26 03:38:07;;;;;;;1.13;1.07;;;;;;;;;;5071716;28;20465;-79
2022/06/26 03:40:34;;;;;;;0.73;0.73;;;;;;;;;;5074026;28;20438;-79
2022/06/26 03:43:03;;;;;;;0.70;0.60;;;;;;;;;;5069355;28;20964;-79
2022/06/26 03:46:00;;;;;;;1.83;1.27;;;;;;;;;;5054983;28;20441;-79
2022/06/26 03:48:27;;;;;;;1.20;1.10;;;;;;;;;;5054598;28;20450;-79
2022/06/26 03:50:54;;;;;;;0.70;0.60;;;;;;;;;;5055979;28;20499;-79
2022/06/26 03:53:23;;;;;;;0.70;0.60;;;;;;;;;;5047129;28;20543;-77
2022/06/26 03:55:51;;;;;;;0.80;0.80;;;;;;;;;;5037747;28;20515;-78
2022/06/26 03:58:21;;;;;;;0.70;0.70;;;;;;;;;;5054608;28;20461;-79
2022/06/26 04:00:48;;;;;;;1.93;1.20;;;;;;;;;;5054350;28;20439;-78
2022/06/26 04:03:15;;;;;;;0.70;0.60;;;;;;;;;;5054055;28;20460;-78
2022/06/26 04:05:43;;;;;;;0.77;0.77;;;;;;;;;;5053504;28;20444;-78
2022/06/26 04:08:10;;;;;;;0.70;0.60;;;;;;;;;;5063848;28;20443;-79
2022/06/26 04:10:47;;;;;;;0.73;0.73;;;;;;;;;;5064937;28;20447;-78
2022/06/26 04:13:33;;;;;;;0.60;0.60;;;;;;;;;;5073043;28;21161;-78
2022/06/26 04:16:01;;;;;;;0.70;0.70;;;;;;;;;;5057240;28;20439;-78
2022/06/26 04:18:31;;;;;;;0.70;0.70;;;;;;;;;;5073773;28;20539;-79
2022/06/26 04:20:59;;;;;;;1.43;0.90;;;;;;;;;;5058983;28;20504;-78
2022/06/26 04:23:26;;;;;;;0.70;0.70;;;;;;;;;;5036457;28;20490;-78
2022/06/26 04:26:01;;;;;;;0.90;0.90;;;;;;;;;;5055564;28;20432;-79
2022/06/26 04:28:29;;;;;;;0.70;0.60;;;;;;;;;;5053668;28;20493;-79
2022/06/26 04:30:59;;;;;;;0.67;0.63;;;;;;;;;;5053387;28;20436;-79
2022/06/26 04:33:29;;;;;;;0.60;0.60;;;;;;;;;;5036857;28;20802;-79
2022/06/26 04:36:03;;;;;;;0.70;0.70;;;;;;;;;;5053172;28;20459;-77
2022/06/26 04:38:30;;;;;;;0.70;0.70;;;;;;;;;;5036641;28;20513;-79
2022/06/26 04:40:58;;;;;;;0.67;0.60;;;;;;;;;;5052044;28;20461;-78
2022/06/26 04:43:26;;;;;;;1.10;0.77;;;;;;;;;;5065224;28;20793;-78
2022/06/26 04:45:52;;;;;;;0.70;0.60;;;;;;;;;;5075156;28;20459;-77
2022/06/26 04:48:19;;;;;;;0.70;0.70;;;;;;;;;;5057217;28;21055;-78
2022/06/26 04:50:46;;;;;;;0.70;0.70;;;;;;;;;;5068619;28;20466;-78
2022/06/26 04:53:17;;;;;;;0.70;0.60;;;;;;;;;;5053372;28;20438;-77
2022/06/26 04:55:44;;;;;;;0.70;0.70;;;;;;;;;;5057969;28;20423;-78
2022/06/26 04:58:11;;;;;;;0.60;0.57;;;;;;;;;;5055467;28;20478;-79
2022/06/26 05:00:40;;;;;;;0.70;0.70;;;;;;;;;;5073235;28;20441;-78
2022/06/26 05:03:13;;;;;;;0.70;0.60;;;;;;;;;;5071172;28;20434;-78
2022/06/26 05:05:57;;;;;;;1.23;1.13;;;;;;;;;;5073474;28;21024;-78
2022/06/26 05:08:43;;;;;;;0.80;0.80;;;;;;;;;;5071268;28;20439;-77
2022/06/26 05:11:10;;;;;;;0.60;0.60;;;;;;;;;;5072445;28;20425;-77
2022/06/26 05:13:38;;;;;;;0.70;0.60;;;;;;;;;;5072563;28;20945;-76
2022/06/26 05:16:29;;;;;;;1.27;1.17;;;;;;;;;;5069604;28;20434;-77
2022/06/26 05:18:59;;;;;;;0.70;0.63;;;;;;;;;;5052672;28;20468;-77
2022/06/26 05:21:25;;;;;;;0.70;0.60;;;;;;;;;;5072337;28;20463;-77
2022/06/26 05:23:53;;;;;;;2.20;0.90;;;;;;;;;;5071958;28;20540;-76
2022/06/26 05:26:22;;;;;;;0.70;0.70;;;;;;;;;;5073402;28;20442;-78
2022/06/26 05:28:51;;;;;;;0.70;0.70;;;;;;;;;;5052525;28;20446;-77
2022/06/26 05:31:18;;;;;;;0.80;0.80;;;;;;;;;;5071706;28;20426;-77
2022/06/26 05:33:49;;;;;;;1.27;1.17;;;;;;;;;;5052257;28;20451;-77
2022/06/26 05:36:18;;;;;;;0.70;0.60;;;;;;;;;;5052270;28;20479;-77
2022/06/26 05:38:46;;;;;;;0.70;0.70;;;;;;;;;;5051806;28;20471;-78
2022/06/26 05:41:12;;;;;;;0.80;0.80;;;;;;;;;;5052156;28;20972;-77
2022/06/26 05:43:41;;;;;;;0.70;0.60;;;;;;;;;;5053924;28;20446;-77
2022/06/26 05:46:10;;;;;;;0.70;0.70;;;;;;;;;;5052455;28;20454;-76
2022/06/26 05:48:54;;;;;;;0.70;0.63;;;;;;;;;;5064203;28;20431;-76
2022/06/26 05:51:59;;;;;;;0.70;0.60;;;;;;;;;;5057972;28;20454;-76
2022/06/26 05:54:44;;;;;;;0.73;0.73;;;;;;;;;;5066020;28;20412;-76
2022/06/26 05:57:34;;;;;;;0.70;0.63;;;;;;;;;;5053651;28;20511;-77
2022/06/26 06:00:22;;;;;;;0.70;0.60;;;;;;;;;;5052452;28;20944;-78
2022/06/26 06:02:53;;;;;;;1.57;1.33;;;;;;;;;;5052359;28;20837;-77
2022/06/26 06:05:22;;;;;;;0.77;0.73;;;;;;;;;;5064998;28;20449;-76
2022/06/26 06:07:50;;;;;;;0.70;0.60;;;;;;;;;;5055709;28;20462;-77
2022/06/26 06:10:19;;;;;;;0.70;0.70;;;;;;;;;;5072124;28;20465;-76
2022/06/26 06:12:47;;;;;;;0.70;0.60;;;;;;;;;;5069613;28;20440;-76
2022/06/26 06:15:15;;;;;;;0.70;0.70;;;;;;;;;;5055538;28;20445;-76
2022/06/26 06:17:45;;;;;;;0.70;0.67;;;;;;;;;;5055686;28;20432;-76
2022/06/26 06:20:13;;;;;;;0.70;0.60;;;;;;;;;;5071100;28;20552;-77
2022/06/26 06:22:45;;;;;;;0.70;0.70;;;;;;;;;;5071891;28;20973;-76
2022/06/26 06:25:12;;;;;;;0.70;0.60;;;;;;;;;;5054408;28;20841;-77
2022/06/26 06:27:43;;;;;;;0.70;0.70;;;;;;;;;;5073539;28;20850;-76
2022/06/26 06:30:15;;;;;;;0.70;0.60;;;;;;;;;;5070622;28;20473;-76
2022/06/26 06:32:43;;;;;;;0.70;0.70;;;;;;;;;;5055245;28;20448;-76
2022/06/26 06:35:23;;;;;;;0.70;0.70;;;;;;;;;;5063576;28;20537;-76
2022/06/26 06:37:51;;;;;;;0.70;0.60;;;;;;;;;;5063842;28;20485;-76
2022/06/26 06:40:21;;;;;;;0.80;0.80;;;;;;;;;;5054687;28;20462;-77
2022/06/26 06:42:51;;;;;;;0.70;0.60;;;;;;;;;;5072223;28;20409;-76
2022/06/26 06:45:18;;;;;;;3.17;1.40;;;;;;;;;;5075353;28;20466;-76
2022/06/26 06:47:56;;;;;;;0.70;0.60;;;;;;;;;;5075834;28;20411;-77
2022/06/26 06:50:38;;;;;;;0.70;0.70;;;;;;;;;;5075729;28;20407;-77
2022/06/26 06:53:06;;;;;;;0.70;0.70;;;;;;;;;;5058518;28;20967;-76
2022/06/26 06:55:34;;;;;;;0.70;0.70;;;;;;;;;;5074491;28;20806;-77
2022/06/26 06:58:01;;;;;;;0.80;0.80;;;;;;;;;;5071424;28;20530;-76
2022/06/26 07:00:27;;;;;;;0.70;0.60;;;;;;;;;;5055423;28;20467;-77
2022/06/26 07:02:59;;;;;;;0.73;0.70;;;;;;;;;;5068972;28;20453;-76
2022/06/26 07:05:31;;;;;;;0.70;0.70;;;;;;;;;;5076035;28;20480;-76
2022/06/26 07:07:59;;;;;;;0.70;0.70;;;;;;;;;;5075184;28;20811;-76
2022/06/26 07:10:28;;;;;;;0.80;0.80;;;;;;;;;;5079120;28;20469;-76
2022/06/26 07:12:55;;;;;;;0.70;0.70;;;;;;;;;;5054396;28;20476;-75
2022/06/26 07:15:22;;;;;;;0.70;0.60;;;;;;;;;;5076491;28;20533;-76
2022/06/26 07:17:52;;;;;;;0.70;0.60;;;;;;;;;;5077706;28;20434;-77
2022/06/26 07:20:19;;;;;;;0.70;0.70;;;;;;;;;;5077368;28;20974;-77
2022/06/26 07:22:46;;;;;;;0.70;0.70;;;;;;;;;;5059548;28;21033;-77
2022/06/26 07:25:32;;;;;;;0.80;0.70;;;;;;;;;;5071852;28;20443;-77
2022/06/26 07:28:02;;;;;;;0.70;0.70;;;;;;;;;;5056284;28;20526;-77
2022/06/26 07:30:31;;;;;;;0.70;0.70;;;;;;;;;;5057760;28;20440;-76
2022/06/26 07:33:02;;;;;;;0.70;0.60;;;;;;;;;;5058281;28;20440;-77
2022/06/26 07:35:30;;;;;;;0.70;0.70;;;;;;;;;;5074185;28;21027;-78
2022/06/26 07:37:57;;;;;;;1.00;0.87;;;;;;;;;;5073948;28;20450;-76
2022/06/26 07:40:25;;;;;;;0.70;0.60;;;;;;;;;;5073535;28;20524;-77
2022/06/26 07:42:55;;;;;;;0.70;0.70;;;;;;;;;;5047595;28;20454;-77
2022/06/26 07:45:28;;;;;;;0.70;0.60;;;;;;;;;;5060131;28;21256;-77
2022/06/26 07:48:00;;;;;;;0.77;0.70;;;;;;;;;;5053405;28;20463;-77
2022/06/26 07:50:27;;;;;;;0.73;0.70;;;;;;;;;;5054051;28;20446;-77
2022/06/26 07:52:54;;;;;;;0.70;0.60;;;;;;;;;;5037735;28;20431;-78
2022/06/26 07:55:22;;;;;;;0.70;0.70;;;;;;;;;;5052849;28;20779;-78
2022/06/26 07:57:48;;;;;;;0.70;0.63;;;;;;;;;;5038175;28;20440;-78
2022/06/26 08:00:17;;;;;;;0.70;0.60;;;;;;;;;;5063855;28;20468;-79
2022/06/26 08:02:44;;;;;;;0.80;0.70;;;;;;;;;;5058299;28;20994;-80
2022/06/26 08:05:11;;;;;;;0.73;0.63;;;;;;;;;;5046103;28;20496;-78
2022/06/26 08:07:38;;;;;;;0.80;0.70;;;;;;;;;;5075229;28;20481;-78
2022/06/26 08:10:05;;;;;;;0.77;0.70;;;;;;;;;;5070870;28;20435;-78
2022/06/26 08:12:34;;;;;;;0.70;0.70;;;;;;;;;;5037770;28;20999;-78
2022/06/26 08:15:06;;;;;;;0.80;0.80;;;;;;;;;;5054390;28;20828;-79
2022/06/26 08:17:34;;;;;;;0.80;0.70;;;;;;;;;;5038536;28;20435;-79
2022/06/26 08:20:03;;;;;;;0.70;0.60;;;;;;;;;;5056509;28;20470;-79
2022/06/26 08:22:32;;;;;;;0.80;0.70;;;;;;;;;;5055641;28;20460;-79
2022/06/26 08:24:58;;;;;;;0.73;0.70;;;;;;;;;;5054339;28;20467;-79
2022/06/26 08:27:25;;;;;;;0.70;0.60;;;;;;;;;;5072752;28;20486;-80
2022/06/26 08:29:51;;;;;;;0.80;0.77;;;;;;;;;;5070068;28;20888;-80
2022/06/26 08:32:19;;;;;;;1.00;0.90;;;;;;;;;;5059707;28;20431;-80
2022/06/26 08:34:47;;;;;;;0.80;0.80;;;;;;;;;;5054333;28;20406;-79
2022/06/26 08:37:15;;;;;;;0.70;0.60;;;;;;;;;;5065972;28;20467;-80
2022/06/26 08:39:43;;;;;;;0.73;0.70;;;;;;;;;;5071793;28;20455;-80
2022/06/26 08:42:10;;;;;;;0.80;0.70;;;;;;;;;;5051223;28;20452;-80
2022/06/26 08:44:40;;;;;;;0.70;0.70;;;;;;;;;;5054108;28;20429;-80
2022/06/26 08:47:08;;;;;;;0.80;0.70;;;;;;;;;;5055600;28;20443;-79
2022/06/26 08:49:35;;;;;;;0.70;0.70;;;;;;;;;;5056033;28;20500;-80
2022/06/26 08:52:04;;;;;;;1.30;1.20;;;;;;;;;;5072142;28;20477;-81
2022/06/26 08:54:32;;;;;;;0.70;0.70;;;;;;;;;;5055024;28;20417;-81
2022/06/26 08:56:59;;;;;;;0.70;0.60;;;;;;;;;;5062723;28;20447;-81
2022/06/26 08:59:27;;;;;;;0.80;0.80;;;;;;;;;;5057421;28;20782;-81
2022/06/26 09:01:58;;;;;;;0.70;0.70;;;;;;;;;;5053322;28;20416;-80
2022/06/26 09:04:25;;;;;;;0.70;0.60;;;;;;;;;;5053240;28;20956;-81
2022/06/26 09:06:52;;;;;;;0.80;0.70;;;;;;;;;;5044233;28;20521;-81
2022/06/26 09:09:23;;;;;;;0.70;0.60;;;;;;;;;;5072958;28;20489;-80
2022/06/26 09:11:52;;;;;;;0.70;0.70;;;;;;;;;;5072519;28;20390;-80
2022/06/26 09:14:19;;;;;;;0.70;0.70;;;;;;;;;;5053880;28;20440;-80
2022/06/26 09:16:49;;;;;;;0.70;0.70;;;;;;;;;;5052346;28;20469;-80
2022/06/26 09:19:18;;;;;;;0.80;0.70;;;;;;;;;;5052417;28;20471;-80
2022/06/26 09:21:46;;;;;;;0.80;0.80;;;;;;;;;;5036812;28;20467;-80
2022/06/26 09:24:13;;;;;;;0.70;0.70;;;;;;;;;;5055384;28;20468;-80
2022/06/26 09:27:00;;;;;;;0.80;0.80;;;;;;;;;;5061435;28;20462;-80
2022/06/26 09:29:27;;;;;;;0.80;0.70;;;;;;;;;;5048770;28;20406;-80
2022/06/26 09:31:54;;;;;;;0.70;0.60;;;;;;;;;;5062429;28;20414;-80
2022/06/26 09:34:21;;;;;;;0.80;0.70;;;;;;;;;;5051795;28;20907;-81
2022/06/26 09:36:54;;;;;;;0.80;0.80;;;;;;;;;;5060467;28;20439;-80
2022/06/26 09:39:21;;;;;;;0.70;0.70;;;;;;;;;;5060388;28;20489;-80
2022/06/26 09:41:49;;;;;;;0.70;0.60;;;;;;;;;;5051573;28;20571;-80
2022/06/26 09:44:17;;;;;;;0.70;0.60;;;;;;;;;;5070901;28;20435;-80
2022/06/26 09:46:44;;;;;;;0.70;0.60;;;;;;;;;;5072398;28;20485;-80
2022/06/26 09:49:11;;;;;;;0.80;0.70;;;;;;;;;;5071098;28;20442;-81
2022/06/26 09:51:37;;;;;;;0.80;0.80;;;;;;;;;;5071413;28;20437;-80
2022/06/26 09:54:04;;;;;;;0.70;0.60;;;;;;;;;;5069244;28;20449;-80
2022/06/26 09:56:32;;;;;;;0.70;0.60;;;;;;;;;;5066010;28;20475;-80
2022/06/26 09:59:00;;;;;;;0.70;0.60;;;;;;;;;;5051928;28;20448;-80
2022/06/26 10:07:04;;;;;;;1.27;1.17;;;;;;;;;;5062761;28;20469;-78
2022/06/26 10:09:33;;;;;;;0.70;0.60;;;;;;;;;;5036519;28;20480;-78
2022/06/26 10:12:02;;;;;;;0.70;0.70;;;;;;;;;;5052473;28;20436;-80
2022/06/26 10:14:33;;;;;;;7.10;2.00;;;;;;;;;;5068680;28;20450;-78
2022/06/26 10:17:10;;;;;;;0.70;0.60;;;;;;;;;;5052326;28;20534;-80
2022/06/26 10:19:40;;;;;;;0.77;0.70;;;;;;;;;;5055202;28;20430;-80
2022/06/26 10:22:11;;;;;;;0.80;0.80;;;;;;;;;;5037685;28;20537;-80
2022/06/26 10:24:52;;;;;;;0.73;0.70;;;;;;;;;;5042214;28;20444;-79
2022/06/26 10:27:23;;;;;;;0.70;0.60;;;;;;;;;;5059162;28;20436;-79
2022/06/26 10:30:02;;;;;;;0.70;0.60;;;;;;;;;;5060573;28;20443;-80
2022/06/26 10:32:29;;;;;;;0.73;0.70;;;;;;;;;;5058622;28;20431;-80
2022/06/26 10:34:56;;;;;;;0.70;0.60;;;;;;;;;;5056237;28;20523;-80
2022/06/26 10:37:23;;;;;;;0.80;0.80;;;;;;;;;;5068890;28;20803;-78
2022/06/26 10:39:52;;;;;;;0.70;0.60;;;;;;;;;;5075289;28;20471;-79
2022/06/26 10:45:12;;;;;;;1.03;0.93;;;;;;;;;;5053515;28;20501;-80
2022/06/26 10:47:44;;;;;;;0.70;0.70;;;;;;;;;;5046619;28;20530;-80
2022/06/26 10:50:36;;;;;;;0.70;0.60;;;;;;;;;;5075207;28;20488;-80
2022/06/26 10:53:14;;;;;;;0.80;0.80;;;;;;;;;;5021562;28;20448;-80
2022/06/26 10:55:42;;;;;;;0.70;0.60;;;;;;;;;;5069901;28;20444;-80
2022/06/26 10:58:16;;;;;;;0.80;0.70;;;;;;;;;;5036901;28;21040;-80
2022/06/26 11:00:45;;;;;;;0.80;0.80;;;;;;;;;;5052624;28;20498;-79
2022/06/26 11:03:12;;;;;;;0.80;0.70;;;;;;;;;;5054181;28;21030;-79
2022/06/26 11:05:48;;;;;;;0.70;0.63;;;;;;;;;;5068726;28;20943;-80
2022/06/26 11:08:21;;;;;;;0.80;0.70;;;;;;;;;;5055190;28;20926;-80
2022/06/26 11:10:48;;;;;;;0.70;0.63;;;;;;;;;;5074395;28;20424;-79
2022/06/26 11:13:15;;;;;;;0.70;0.60;;;;;;;;;;5073314;28;20500;-79
2022/06/26 11:15:43;;;;;;;0.70;0.70;;;;;;;;;;5057620;28;20449;-79
2022/06/26 11:18:11;;;;;;;0.80;0.77;;;;;;;;;;5058076;28;20488;-79
2022/06/26 11:20:53;;;;;;;0.70;0.70;;;;;;;;;;5056425;28;20470;-79
2022/06/26 11:23:22;;;;;;;0.80;0.70;;;;;;;;;;5058258;28;20488;-79
2022/06/26 11:25:49;;;;;;;0.90;0.80;;;;;;;;;;5052817;28;20444;-79
2022/06/26 11:28:17;;;;;;;1.10;1.10;;;;;;;;;;5054796;28;20823;-78
2022/06/26 11:30:45;;;;;;;0.90;0.70;;;;;;;;;;5053967;28;20424;-79
2022/06/26 11:33:21;;;;;;;0.70;0.60;;;;;;;;;;5054126;28;20475;-79
2022/06/26 11:35:48;;;;;;;0.80;0.70;;;;;;;;;;5055124;28;20452;-80
2022/06/26 11:38:16;;;;;;;0.70;0.70;;;;;;;;;;5054275;28;21041;-79
2022/06/26 11:40:43;;;;;;;0.70;0.60;;;;;;;;;;5066824;28;20869;-79
2022/06/26 11:43:11;;;;;;;1.10;1.00;;;;;;;;;;5057649;28;20443;-79
2022/06/26 11:45:40;;;;;;;0.70;0.60;;;;;;;;;;5073294;28;20435;-79
2022/06/26 11:48:08;;;;;;;0.70;0.60;;;;;;;;;;5074045;28;20428;-79
2022/06/26 11:50:37;;;;;;;0.70;0.60;;;;;;;;;;5066057;28;20428;-79
2022/06/26 11:53:05;;;;;;;0.87;0.87;;;;;;;;;;5057223;28;20407;-78
2022/06/26 11:55:31;;;;;;;4.53;1.67;;;;;;;;;;5036846;28;20486;-79
2022/06/26 11:58:01;;;;;;;0.77;0.60;;;;;;;;;;5035600;28;20423;-78
2022/06/26 12:00:28;;;;;;;0.83;0.83;;;;;;;;;;5064898;28;20493;-79
2022/06/26 12:02:55;;;;;;;0.87;0.87;;;;;;;;;;5053690;28;20484;-78
2022/06/26 12:05:25;;;;;;;0.77;0.70;;;;;;;;;;5066786;28;20431;-79
2022/06/26 12:07:53;;;;;;;0.80;0.70;;;;;;;;;;5057296;28;20417;-78
2022/06/26 12:10:24;;;;;;;1.40;1.30;;;;;;;;;;5056995;28;20439;-78
2022/06/26 12:12:52;;;;;;;0.80;0.80;;;;;;;;;;5066550;28;20843;-80
2022/06/26 12:15:25;;;;;;;0.80;0.73;;;;;;;;;;5053379;28;20419;-78
2022/06/26 12:17:53;;;;;;;0.90;0.90;;;;;;;;;;5054323;28;20447;-81
2022/06/26 12:20:20;;;;;;;0.80;0.80;;;;;;;;;;5038289;28;20399;-80
2022/06/26 12:22:48;;;;;;;0.80;0.77;;;;;;;;;;5053031;28;20890;-81
2022/06/26 12:25:24;;;;;;;0.90;0.80;;;;;;;;;;5053551;28;20502;-81
2022/06/26 12:27:51;;;;;;;0.83;0.83;;;;;;;;;;5053820;28;20406;-81
2022/06/26 12:30:19;;;;;;;0.80;0.70;;;;;;;;;;5072863;28;20924;-82
2022/06/26 12:32:55;;;;;;;1.20;1.10;;;;;;;;;;5074688;28;20477;-81
2022/06/26 12:35:22;;;;;;;0.80;0.80;;;;;;;;;;5065202;28;20514;-81
2022/06/26 12:37:49;;;;;;;0.80;0.73;;;;;;;;;;5057672;28;20521;-80
2022/06/26 12:40:17;;;;;;;1.00;0.90;;;;;;;;;;5053421;28;20770;-80
2022/06/26 12:42:45;;;;;;;0.80;0.73;;;;;;;;;;5051983;28;20570;-81
2022/06/26 12:45:12;;;;;;;0.80;0.70;;;;;;;;;;5052741;28;20432;-80
2022/06/26 12:47:39;;;;;;;0.80;0.80;;;;;;;;;;5056146;28;20929;-80
2022/06/26 12:50:07;;;;;;;0.83;0.83;;;;;;;;;;5044624;28;20947;-80
2022/06/26 12:52:34;;;;;;;1.23;1.13;;;;;;;;;;5052100;28;20956;-81
2022/06/26 12:55:02;;;;;;;0.80;0.70;;;;;;;;;;5054147;28;20518;-80
2022/06/26 12:57:29;;;;;;;0.80;0.80;;;;;;;;;;5053794;28;20435;-80
2022/06/26 12:59:57;;;;;;;0.70;0.70;;;;;;;;;;5070077;28;20450;-80
2022/06/26 13:02:24;;;;;;;0.80;0.80;;;;;;;;;;5071251;28;20462;-80
2022/06/26 13:04:53;;;;;;;0.73;0.70;;;;;;;;;;5066666;28;20503;-80
2022/06/26 13:07:22;;;;;;;0.80;0.80;;;;;;;;;;5077166;28;20451;-80
2022/06/26 13:09:55;;;;;;;0.80;0.73;;;;;;;;;;5059773;28;20871;-80
2022/06/26 13:12:22;;;;;;;2.60;2.40;;;;;;;;;;5059301;28;20446;-80
2022/06/26 13:14:49;;;;;;;0.70;0.70;;;;;;;;;;5058739;28;20439;-79
2022/06/26 13:17:17;;;;;;;0.70;0.60;;;;;;;;;;5076230;28;20419;-80
2022/06/26 13:19:45;;;;;;;0.70;0.70;;;;;;;;;;5067751;28;20436;-80
2022/06/26 13:22:12;;;;;;;0.80;0.80;;;;;;;;;;5055787;28;20502;-80
2022/06/26 13:24:39;;;;;;;1.23;1.13;;;;;;;;;;5059712;28;20878;-79
2022/06/26 13:27:08;;;;;;;0.70;0.70;;;;;;;;;;5056659;28;20543;-79
2022/06/26 13:29:35;;;;;;;0.80;0.70;;;;;;;;;;5068378;28;20439;-79
2022/06/26 13:32:02;;;;;;;0.80;0.70;;;;;;;;;;5076585;28;20431;-79
2022/06/26 13:34:30;;;;;;;0.80;0.80;;;;;;;;;;5074582;28;20967;-80
2022/06/26 13:36:57;;;;;;;0.80;0.80;;;;;;;;;;5054626;28;20460;-80
2022/06/26 13:39:25;;;;;;;0.80;0.70;;;;;;;;;;5038665;28;20479;-80
2022/06/26 13:41:54;;;;;;;0.70;0.70;;;;;;;;;;5056090;28;20839;-80
2022/06/26 13:44:22;;;;;;;0.70;0.60;;;;;;;;;;5054268;28;20509;-79
2022/06/26 13:46:51;;;;;;;0.70;0.67;;;;;;;;;;5076680;28;20462;-80
2022/06/26 13:49:22;;;;;;;0.90;0.70;;;;;;;;;;5041837;28;20418;-80
2022/06/26 13:51:50;;;;;;;1.30;1.20;;;;;;;;;;5054479;28;20944;-79
2022/06/26 13:54:17;;;;;;;0.70;0.60;;;;;;;;;;5041306;28;20456;-80
2022/06/26 13:56:45;;;;;;;1.00;0.90;;;;;;;;;;5060169;28;20407;-80
2022/06/26 13:59:12;;;;;;;0.70;0.70;;;;;;;;;;5069950;28;20422;-80
2022/06/26 14:01:38;;;;;;;0.70;0.60;;;;;;;;;;5079972;28;20451;-80
2022/06/26 14:04:05;;;;;;;0.80;0.80;;;;;;;;;;5074205;28;20971;-79
2022/06/26 14:06:32;;;;;;;0.80;0.70;;;;;;;;;;5062858;28;20963;-80
2022/06/26 14:09:01;;;;;;;0.70;0.60;;;;;;;;;;5043036;28;20411;-79
2022/06/26 14:11:27;;;;;;;0.80;0.80;;;;;;;;;;5053636;28;20431;-79
2022/06/26 14:13:54;;;;;;;0.90;0.90;;;;;;;;;;5039448;28;20658;-79
2022/06/26 14:16:21;;;;;;;1.33;1.23;;;;;;;;;;5039452;28;20436;-79
2022/06/26 14:18:48;;;;;;;0.80;0.70;;;;;;;;;;5055126;28;20435;-79
2022/06/26 14:21:16;;;;;;;0.80;0.70;;;;;;;;;;5061180;28;20508;-78
2022/06/26 14:26:30;;;;;;;0.80;0.80;;;;;;;;;;5074517;28;20765;-79
2022/06/26 14:28:57;;;;;;;0.70;0.70;;;;;;;;;;5072426;28;20501;-79
2022/06/26 14:31:24;;;;;;;0.70;0.70;;;;;;;;;;5073702;28;20845;-78
2022/06/26 14:33:51;;;;;;;0.77;0.67;;;;;;;;;;5074166;28;20408;-79
2022/06/26 14:36:18;;;;;;;0.70;0.70;;;;;;;;;;5073313;28;20464;-78
2022/06/26 14:38:45;;;;;;;0.80;0.70;;;;;;;;;;5075236;28;20481;-78
2022/06/26 14:41:19;;;;;;;0.80;0.70;;;;;;;;;;5066294;28;20452;-79
2022/06/26 14:43:48;;;;;;;0.90;0.70;;;;;;;;;;5055863;28;20439;-78
2022/06/26 14:46:16;;;;;;;0.80;0.70;;;;;;;;;;5055033;28;20506;-78
2022/06/26 14:48:43;;;;;;;0.70;0.70;;;;;;;;;;5038592;28;20517;-78
2022/06/26 14:51:10;;;;;;;0.70;0.70;;;;;;;;;;5055109;28;20546;-79
2022/06/26 14:53:37;;;;;;;3.97;1.20;;;;;;;;;;5056218;28;20424;-78
2022/06/26 14:56:03;;;;;;;0.70;0.70;;;;;;;;;;5063629;28;20511;-79
2022/06/26 14:58:31;;;;;;;3.63;1.20;;;;;;;;;;5038503;28;20436;-78
2022/06/26 15:00:59;;;;;;;0.70;0.60;;;;;;;;;;5038367;28;20520;-79
2022/06/26 15:03:26;;;;;;;0.90;0.90;;;;;;;;;;5056060;28;20513;-79
2022/06/26 15:05:53;;;;;;;0.70;0.70;;;;;;;;;;5056647;28;20501;-79
2022/06/26 15:08:23;;;;;;;0.80;0.70;;;;;;;;;;5058336;28;20794;-79
2022/06/26 15:10:50;;;;;;;0.70;0.60;;;;;;;;;;5062637;28;20436;-79